createdAt,value
2023-04-25T00:01:14.671Z,1.93
2023-04-25T00:03:43.558Z,2.10
2023-04-25T00:06:12.513Z,2.13
2023-04-25T00:08:41.276Z,2.10
2023-04-25T00:11:09.916Z,2.20
2023-04-25T00:13:38.693Z,2.13
2023-04-25T00:16:08.000Z,2.20
2023-04-25T00:18:38.211Z,2.37
2023-04-25T00:21:07.400Z,2.27
2023-04-25T00:23:37.411Z,2.67
2023-04-25T00:26:06.229Z,2.33
2023-04-25T00:28:35.016Z,2.40
2023-04-25T00:31:03.732Z,3.00
2023-04-25T00:33:32.437Z,2.60
2023-04-25T00:36:02.735Z,2.70
2023-04-25T00:38:31.453Z,2.63
2023-04-25T00:41:00.208Z,3.07
2023-04-25T00:43:30.303Z,3.20
2023-04-25T00:46:02.136Z,3.20
2023-04-25T00:48:31.029Z,3.03
2023-04-25T00:51:02.496Z,3.33
2023-04-25T00:53:33.669Z,3.00
2023-04-25T00:56:02.434Z,3.40
2023-04-25T00:58:31.467Z,4.07
2023-04-25T01:01:01.352Z,3.27
2023-04-25T01:03:30.769Z,3.63
2023-04-25T01:05:59.751Z,3.70
2023-04-25T01:08:30.129Z,3.60
2023-04-25T01:10:59.516Z,3.60
2023-04-25T01:13:28.403Z,3.20
2023-04-25T01:15:57.570Z,3.60
2023-04-25T01:18:26.588Z,3.10
2023-04-25T01:20:56.631Z,2.90
2023-04-25T01:23:27.441Z,3.40
2023-04-25T01:25:57.147Z,3.47
2023-04-25T01:28:26.353Z,3.60
2023-04-25T01:30:55.668Z,3.50
2023-04-25T01:33:24.963Z,3.40
2023-04-25T01:35:54.237Z,3.90
2023-04-25T01:38:23.069Z,3.40
2023-04-25T01:40:54.295Z,3.27
2023-04-25T01:43:24.401Z,3.13
2023-04-25T01:45:53.898Z,3.73
2023-04-25T01:48:23.187Z,3.47
2023-04-25T01:50:52.018Z,3.33
2023-04-25T01:53:21.001Z,3.00
2023-04-25T01:55:50.624Z,3.77
2023-04-25T01:58:23.767Z,3.60
2023-04-25T02:01:15.583Z,3.73
2023-04-25T02:03:50.801Z,3.30
2023-04-25T02:06:26.859Z,3.80
2023-04-25T02:08:58.443Z,3.20
2023-04-25T02:11:27.207Z,3.50
2023-04-25T02:14:17.560Z,3.37
2023-04-25T02:17:06.804Z,3.43
2023-04-25T02:19:35.760Z,3.67
2023-04-25T02:22:06.719Z,3.97
2023-04-25T02:24:35.900Z,3.50
2023-04-25T02:27:04.880Z,3.50
2023-04-25T02:29:34.979Z,3.50
2023-04-25T02:32:03.752Z,3.60
2023-04-25T02:34:32.980Z,3.70
2023-04-25T02:37:03.367Z,3.57
2023-04-25T02:39:32.173Z,3.50
2023-04-25T02:42:02.040Z,3.40
2023-04-25T02:44:32.165Z,3.53
2023-04-25T02:47:02.301Z,4.17
2023-04-25T02:49:31.013Z,3.70
2023-04-25T02:51:59.933Z,3.70
2023-04-25T02:55:08.553Z,3.40
2023-04-25T02:57:38.324Z,3.60
2023-04-25T03:00:09.674Z,3.93
2023-04-25T03:02:40.028Z,3.67
2023-04-25T03:05:09.956Z,4.03
2023-04-25T03:07:40.425Z,3.83
2023-04-25T03:10:13.056Z,3.87
2023-04-25T03:12:42.256Z,4.20
2023-04-25T03:15:11.965Z,3.80
2023-04-25T03:17:42.139Z,4.27
2023-04-25T03:20:13.094Z,3.73
2023-04-25T03:22:41.865Z,4.03
2023-04-25T03:25:11.045Z,3.60
2023-04-25T03:27:39.791Z,4.00
2023-04-25T03:30:10.332Z,4.17
2023-04-25T03:32:42.094Z,4.20
2023-04-25T03:35:11.277Z,3.60
2023-04-25T03:37:41.536Z,3.80
2023-04-25T03:40:11.537Z,4.03
2023-04-25T03:43:05.320Z,3.60
2023-04-25T03:45:34.081Z,4.10
2023-04-25T03:48:04.711Z,4.00
2023-04-25T03:50:33.595Z,4.30
2023-04-25T03:53:02.518Z,4.13
2023-04-25T03:55:43.633Z,4.37
2023-04-25T03:58:12.658Z,4.10
2023-04-25T04:00:41.466Z,4.60
2023-04-25T04:03:12.619Z,5.00
2023-04-25T04:05:42.111Z,5.13
2023-04-25T04:08:11.513Z,5.30
2023-04-25T04:10:41.861Z,5.93
2023-04-25T04:13:11.312Z,7.30
2023-04-25T04:15:40.188Z,7.37
2023-04-25T04:18:09.315Z,7.23
2023-04-25T04:20:39.470Z,6.43
2023-04-25T04:23:09.701Z,6.70
2023-04-25T04:25:38.716Z,6.57
2023-04-25T04:28:34.216Z,6.30
2023-04-25T04:31:10.745Z,6.70
2023-04-25T04:33:40.210Z,6.37
2023-04-25T04:36:12.067Z,5.80
2023-04-25T04:38:42.081Z,5.33
2023-04-25T04:41:15.484Z,5.70
2023-04-25T04:43:57.228Z,5.20
2023-04-25T04:46:55.884Z,6.17
2023-04-25T04:49:40.064Z,5.50
2023-04-25T04:52:33.895Z,5.23
2023-04-25T04:55:24.051Z,5.50
2023-04-25T04:58:18.045Z,5.23
2023-04-25T05:00:55.348Z,5.77
2023-04-25T05:03:35.484Z,5.50
2023-04-25T05:06:27.387Z,5.27
2023-04-25T05:09:20.231Z,5.80
2023-04-25T05:12:06.927Z,5.30
2023-04-25T05:14:56.084Z,5.43
2023-04-25T05:18:03.215Z,5.80
2023-04-25T05:20:41.348Z,5.40
2023-04-25T05:23:36.940Z,5.13
2023-04-25T05:26:36.201Z,5.50
2023-04-25T05:29:24.858Z,5.37
2023-04-25T05:32:09.607Z,5.23
2023-04-25T05:34:38.588Z,4.87
2023-04-25T05:37:12.250Z,4.47
2023-04-25T05:39:52.289Z,5.17
2023-04-25T05:42:54.102Z,4.90
2023-04-25T05:45:22.881Z,4.43
2023-04-25T05:48:06.795Z,4.30
2023-04-25T05:50:52.600Z,4.63
2023-04-25T05:53:41.532Z,4.90
2023-04-25T05:56:11.120Z,4.77
2023-04-25T05:58:41.322Z,5.47
2023-04-25T06:01:12.720Z,5.00
2023-04-25T06:03:44.327Z,5.67
2023-04-25T06:06:14.366Z,5.43
2023-04-25T06:08:43.277Z,5.00
2023-04-25T06:11:13.925Z,4.83
2023-04-25T06:13:44.010Z,4.60
2023-04-25T06:16:14.052Z,4.70
2023-04-25T06:18:42.889Z,4.93
2023-04-25T06:21:11.754Z,4.87
2023-04-25T06:23:40.439Z,4.67
2023-04-25T06:26:11.393Z,5.00
2023-04-25T06:28:43.843Z,5.30
2023-04-25T06:31:13.715Z,5.30
2023-04-25T06:33:44.729Z,5.53
2023-04-25T06:36:13.667Z,5.50
2023-04-25T06:38:43.492Z,6.27
2023-04-25T06:41:12.179Z,6.13
2023-04-25T06:43:40.847Z,6.00
2023-04-25T06:46:33.451Z,5.83
2023-04-25T06:49:02.393Z,6.10
2023-04-25T06:51:31.872Z,6.20
2023-04-25T06:54:01.475Z,5.87
2023-04-25T06:56:50.899Z,6.07
2023-04-25T06:59:19.712Z,5.77
2023-04-25T07:01:50.529Z,5.70
2023-04-25T07:04:23.236Z,5.57
2023-04-25T07:06:56.113Z,5.97
2023-04-25T07:09:44.523Z,6.00
2023-04-25T07:12:13.508Z,6.00
2023-04-25T07:14:42.523Z,6.73
2023-04-25T07:17:14.289Z,5.93
2023-04-25T07:19:43.286Z,5.37
2023-04-25T07:22:12.348Z,5.20
2023-04-25T07:24:43.642Z,5.20
2023-04-25T07:27:15.499Z,4.40
2023-04-25T07:29:59.933Z,4.03
2023-04-25T07:32:40.242Z,3.67
2023-04-25T07:35:10.390Z,3.50
2023-04-25T07:37:39.442Z,3.43
2023-04-25T07:40:13.947Z,3.47
2023-04-25T07:42:47.820Z,3.30
2023-04-25T07:45:20.741Z,3.37
2023-04-25T07:47:51.310Z,3.37
2023-04-25T07:50:22.469Z,3.20
2023-04-25T07:52:55.417Z,2.80
2023-04-25T07:55:33.255Z,2.63
2023-04-25T07:58:11.059Z,4.83
2023-04-25T08:00:42.749Z,5.57
2023-04-25T08:03:31.241Z,2.73
2023-04-25T08:06:02.177Z,3.00
2023-04-25T08:08:35.037Z,2.30
2023-04-25T08:11:04.050Z,2.30
2023-04-25T08:13:33.562Z,2.60
2023-04-25T08:16:02.442Z,2.10
2023-04-25T08:18:32.982Z,1.67
2023-04-25T08:21:01.922Z,1.90
2023-04-25T08:23:30.800Z,2.30
2023-04-25T08:26:14.170Z,2.20
2023-04-25T08:28:45.190Z,2.60
2023-04-25T08:31:14.173Z,2.67
2023-04-25T08:33:54.023Z,2.33
2023-04-25T08:36:38.515Z,2.33
2023-04-25T08:39:16.067Z,2.50
2023-04-25T08:42:00.305Z,3.23
2023-04-25T08:44:29.604Z,2.63
2023-04-25T08:46:59.722Z,2.53
2023-04-25T08:49:35.373Z,2.77
2023-04-25T08:52:07.520Z,3.53
2023-04-25T08:54:41.572Z,4.03
2023-04-25T08:57:11.556Z,3.37
2023-04-25T08:59:46.664Z,4.00
2023-04-25T09:02:17.899Z,3.30
2023-04-25T09:04:52.150Z,4.30
2023-04-25T09:07:22.382Z,4.30
2023-04-25T09:09:52.380Z,5.23
2023-04-25T09:12:24.871Z,4.47
2023-04-25T09:15:09.711Z,4.57
2023-04-25T09:18:10.880Z,5.87
2023-04-25T09:21:00.802Z,4.03
2023-04-25T09:23:40.781Z,4.10
2023-04-25T09:26:10.904Z,4.10
2023-04-25T09:28:39.994Z,4.63
2023-04-25T09:31:11.738Z,4.50
2023-04-25T09:33:46.981Z,4.63
2023-04-25T09:36:17.712Z,4.10
2023-04-25T09:39:04.642Z,5.17
2023-04-25T09:41:42.178Z,3.40
2023-04-25T09:44:15.219Z,3.37
2023-04-25T09:46:45.960Z,4.00
2023-04-25T09:49:23.137Z,4.77
2023-04-25T09:52:07.483Z,3.47
2023-04-25T09:54:55.422Z,4.17
2023-04-25T09:57:32.089Z,3.67
2023-04-25T10:00:10.117Z,3.60
2023-04-25T10:02:49.701Z,3.40
2023-04-25T10:05:44.407Z,4.27
2023-04-25T10:08:17.538Z,4.50
2023-04-25T10:10:47.451Z,4.73
2023-04-25T10:13:16.414Z,5.03
2023-04-25T10:15:45.989Z,5.47
2023-04-25T10:18:15.919Z,5.50
2023-04-25T10:20:45.134Z,4.87
2023-04-25T10:23:18.095Z,5.17
2023-04-25T10:25:47.766Z,4.97
2023-04-25T10:28:16.613Z,5.10
2023-04-25T10:31:01.350Z,4.50
2023-04-25T10:33:36.753Z,4.83
2023-04-25T10:36:14.296Z,4.60
2023-04-25T10:38:46.024Z,5.00
2023-04-25T10:41:16.582Z,5.20
2023-04-25T10:43:46.855Z,4.70
2023-04-25T10:46:17.883Z,4.90
2023-04-25T10:48:52.522Z,4.87
2023-04-25T10:51:25.150Z,4.40
2023-04-25T10:54:04.141Z,4.60
2023-04-25T10:56:35.152Z,4.70
2023-04-25T10:59:12.537Z,5.10
2023-04-25T11:01:43.627Z,6.53
2023-04-25T11:04:27.121Z,7.10
2023-04-25T11:07:16.086Z,7.23
2023-04-25T11:09:48.187Z,6.97
2023-04-25T11:12:18.093Z,6.90
2023-04-25T11:14:46.927Z,5.60
2023-04-25T11:17:15.850Z,4.47
2023-04-25T11:19:45.020Z,4.83
2023-04-25T11:22:14.628Z,4.43
2023-04-25T11:24:43.881Z,4.30
2023-04-25T11:27:14.909Z,5.83
2023-04-25T11:29:43.808Z,3.80
2023-04-25T11:32:14.145Z,3.57
2023-04-25T11:34:47.296Z,4.57
2023-04-25T11:37:17.688Z,3.60
2023-04-25T11:39:48.197Z,4.03
2023-04-25T11:42:18.526Z,3.20
2023-04-25T11:44:47.459Z,4.30
2023-04-25T11:47:16.203Z,6.70
2023-04-25T11:49:45.342Z,3.60
2023-04-25T11:52:14.141Z,3.30
2023-04-25T11:54:43.007Z,2.90
2023-04-25T11:57:11.866Z,3.00
2023-04-25T11:59:42.366Z,3.90
2023-04-25T12:02:11.133Z,6.20
2023-04-25T12:04:43.402Z,7.63
2023-04-25T12:07:12.896Z,3.83
2023-04-25T12:09:42.613Z,3.63
2023-04-25T12:12:12.868Z,3.87
2023-04-25T12:14:51.181Z,3.57
2023-04-25T12:17:20.260Z,3.00
2023-04-25T12:19:50.298Z,3.00
2023-04-25T12:22:24.589Z,3.23
2023-04-25T12:24:55.082Z,3.20
2023-04-25T12:27:24.170Z,3.13
2023-04-25T12:29:56.794Z,3.40
2023-04-25T12:32:26.184Z,3.67
2023-04-25T12:34:54.987Z,3.30
2023-04-25T12:37:23.731Z,3.70
2023-04-25T12:39:52.714Z,3.67
2023-04-25T12:42:21.467Z,3.57
2023-04-25T12:44:50.206Z,3.87
2023-04-25T12:47:20.357Z,3.70
2023-04-25T12:49:49.811Z,3.57
2023-04-25T12:52:39.568Z,3.53
2023-04-25T12:55:09.522Z,4.03
2023-04-25T12:57:38.303Z,4.13
2023-04-25T13:00:15.750Z,3.60
2023-04-25T13:02:46.312Z,3.90
2023-04-25T13:05:15.463Z,4.37
2023-04-25T13:07:44.131Z,4.00
2023-04-25T13:10:13.602Z,4.10
2023-04-25T13:12:42.249Z,4.10
2023-04-25T13:15:13.372Z,4.00
2023-04-25T13:17:42.815Z,3.83
2023-04-25T13:20:16.497Z,3.87
2023-04-25T13:22:46.931Z,4.20
2023-04-25T13:25:16.603Z,5.53
2023-04-25T13:27:46.302Z,4.20
2023-04-25T13:30:16.046Z,4.70
2023-04-25T13:32:45.518Z,4.50
2023-04-25T13:35:16.467Z,3.73
2023-04-25T13:37:46.478Z,4.60
2023-04-25T13:40:15.553Z,4.83
2023-04-25T13:42:46.440Z,4.83
2023-04-25T13:45:15.955Z,4.90
2023-04-25T13:47:45.022Z,5.50
2023-04-25T13:50:16.993Z,5.60
2023-04-25T13:52:46.112Z,4.87
2023-04-25T13:55:15.281Z,5.10
2023-04-25T13:57:44.965Z,4.50
2023-04-25T14:00:15.868Z,4.57
2023-04-25T14:02:44.862Z,6.07
2023-04-25T14:05:15.483Z,4.43
2023-04-25T14:07:44.663Z,3.90
2023-04-25T14:10:14.291Z,4.00
2023-04-25T14:12:44.387Z,4.67
2023-04-25T14:15:14.295Z,4.50
2023-04-25T14:17:43.090Z,5.10
2023-04-25T14:20:12.635Z,4.60
2023-04-25T14:22:44.772Z,3.80
2023-04-25T14:25:16.921Z,4.17
2023-04-25T14:27:48.547Z,4.50
2023-04-25T14:30:18.531Z,4.30
2023-04-25T14:32:50.919Z,4.00
2023-04-25T14:35:20.904Z,4.20
2023-04-25T14:37:52.159Z,4.53
2023-04-25T14:40:23.953Z,4.40
2023-04-25T14:43:00.064Z,4.70
2023-04-25T14:45:30.277Z,4.10
2023-04-25T14:47:59.118Z,4.17
2023-04-25T14:50:27.921Z,4.70
2023-04-25T14:53:01.431Z,4.63
2023-04-25T14:55:30.275Z,4.20
2023-04-25T14:57:58.934Z,4.53
2023-04-25T15:00:28.046Z,4.30
2023-04-25T15:02:57.648Z,3.50
2023-04-25T15:05:26.789Z,4.10
2023-04-25T15:07:55.597Z,3.80
2023-04-25T15:10:25.704Z,4.50
2023-04-25T15:12:55.725Z,4.47
2023-04-25T15:15:26.947Z,4.57
2023-04-25T15:17:59.000Z,4.00
2023-04-25T15:20:29.084Z,3.47
2023-04-25T15:22:58.256Z,4.13
2023-04-25T15:25:29.647Z,3.30
2023-04-25T15:27:58.554Z,3.97
2023-04-25T15:30:27.810Z,3.20
2023-04-25T15:32:58.642Z,2.80
2023-04-25T15:35:27.616Z,2.87
2023-04-25T15:37:56.366Z,2.73
2023-04-25T15:40:25.138Z,2.80
2023-04-25T15:42:55.256Z,2.73
2023-04-25T15:45:27.069Z,2.33
2023-04-25T15:47:57.933Z,2.20
2023-04-25T15:50:27.299Z,2.10
2023-04-25T15:52:56.335Z,2.23
2023-04-25T15:55:26.901Z,2.30
2023-04-25T15:57:57.009Z,2.50
2023-04-25T16:00:25.830Z,3.03
2023-04-25T16:02:54.662Z,3.30
2023-04-25T16:05:23.663Z,2.90
2023-04-25T16:07:54.843Z,3.30
2023-04-25T16:10:23.619Z,3.10
2023-04-25T16:12:52.479Z,3.93
2023-04-25T16:15:22.714Z,3.53
2023-04-25T16:17:51.668Z,3.57
2023-04-25T16:20:20.754Z,2.70
2023-04-25T16:22:50.799Z,2.53
2023-04-25T16:25:22.117Z,2.83
2023-04-25T16:27:52.307Z,3.30
2023-04-25T16:30:23.257Z,3.40
2023-04-25T16:32:53.181Z,3.77
2023-04-25T16:35:28.999Z,3.73
2023-04-25T16:37:59.123Z,2.17
2023-04-25T16:40:29.123Z,1.80
2023-04-25T16:42:58.000Z,2.20
2023-04-25T16:45:28.548Z,1.83
2023-04-25T16:47:57.443Z,1.63
2023-04-25T16:50:27.347Z,1.97
2023-04-25T16:52:56.283Z,1.60
2023-04-25T16:55:28.002Z,1.80
2023-04-25T16:57:57.088Z,1.93
2023-04-25T17:00:27.459Z,2.43
2023-04-25T17:02:56.290Z,2.13
2023-04-25T17:05:27.438Z,2.17
2023-04-25T17:07:56.893Z,2.67
2023-04-25T17:10:25.742Z,2.17
2023-04-25T17:12:54.742Z,2.23
2023-04-25T17:15:23.732Z,2.40
2023-04-25T17:17:53.936Z,1.80
2023-04-25T17:20:23.009Z,2.40
2023-04-25T17:22:52.072Z,2.40
2023-04-25T17:25:21.808Z,2.20
2023-04-25T17:27:51.355Z,3.00
2023-04-25T17:30:20.715Z,3.40
2023-04-25T17:32:49.653Z,6.33
2023-04-25T17:35:20.113Z,4.70
2023-04-25T17:37:48.872Z,4.37
2023-04-25T17:40:17.812Z,2.40
2023-04-25T17:42:46.981Z,2.37
2023-04-25T17:45:15.682Z,2.87
2023-04-25T17:47:44.402Z,3.30
2023-04-25T17:50:13.746Z,4.07
2023-04-25T17:52:45.142Z,3.73
2023-04-25T17:55:14.494Z,3.00
2023-04-25T17:57:43.278Z,3.50
2023-04-25T18:00:13.600Z,4.33
2023-04-25T18:02:45.417Z,3.23
2023-04-25T18:05:15.777Z,2.90
2023-04-25T18:07:46.317Z,3.27
2023-04-25T18:10:17.681Z,3.53
2023-04-25T18:12:47.251Z,3.10
2023-04-25T18:15:20.383Z,2.90
2023-04-25T18:17:57.095Z,2.73
2023-04-25T18:20:28.920Z,2.67
2023-04-25T18:22:59.200Z,2.30
2023-04-25T18:25:28.101Z,2.17
2023-04-25T18:27:57.484Z,2.10
2023-04-25T18:30:26.929Z,2.40
2023-04-25T18:32:56.383Z,2.20
2023-04-25T18:35:25.187Z,2.03
2023-04-25T18:37:55.651Z,2.30
2023-04-25T18:40:27.236Z,3.40
2023-04-25T18:42:56.119Z,2.57
2023-04-25T18:45:25.116Z,2.60
2023-04-25T18:47:54.849Z,2.57
2023-04-25T18:50:26.477Z,2.40
2023-04-25T18:52:55.570Z,2.23
2023-04-25T18:55:33.350Z,2.70
2023-04-25T18:58:02.399Z,3.03
2023-04-25T19:00:31.437Z,3.20
2023-04-25T19:03:04.725Z,3.57
2023-04-25T19:05:36.246Z,3.73
2023-04-25T19:08:10.009Z,2.87
2023-04-25T19:10:41.406Z,3.53
2023-04-25T19:13:10.907Z,3.87
2023-04-25T19:15:39.715Z,3.43
2023-04-25T19:18:09.149Z,2.30
2023-04-25T19:20:38.219Z,2.27
2023-04-25T19:23:07.302Z,2.63
2023-04-25T19:25:36.124Z,2.50
2023-04-25T19:28:07.875Z,2.47
2023-04-25T19:30:36.779Z,2.20
2023-04-25T19:33:05.932Z,2.67
2023-04-25T19:35:35.171Z,1.97
2023-04-25T19:38:04.692Z,1.93
2023-04-25T19:40:33.834Z,1.90
2023-04-25T19:43:02.791Z,1.90
2023-04-25T19:45:34.145Z,1.90
2023-04-25T19:48:04.807Z,1.80
2023-04-25T19:50:33.645Z,2.10
2023-04-25T19:53:02.399Z,2.37
2023-04-25T19:55:31.202Z,1.93
2023-04-25T19:57:59.898Z,2.00
2023-04-25T20:00:28.652Z,2.00
2023-04-25T20:02:58.755Z,1.97
2023-04-25T20:05:28.003Z,1.87
2023-04-25T20:07:56.651Z,2.10
2023-04-25T20:10:25.548Z,1.80
2023-04-25T20:12:54.601Z,1.90
2023-04-25T20:15:23.427Z,2.00
2023-04-25T20:17:52.115Z,1.87
2023-04-25T20:20:22.364Z,1.90
2023-04-25T20:22:51.624Z,2.00
2023-04-25T20:25:20.382Z,2.10
2023-04-25T20:27:49.225Z,2.10
2023-04-25T20:30:18.603Z,2.07
2023-04-25T20:32:47.299Z,2.47
2023-04-25T20:35:16.381Z,2.07
2023-04-25T20:37:46.628Z,2.80
2023-04-25T20:40:15.978Z,2.40
2023-04-25T20:42:44.632Z,2.30
2023-04-25T20:45:13.806Z,2.43
2023-04-25T20:47:43.074Z,2.50
2023-04-25T20:50:12.717Z,2.10
2023-04-25T20:52:41.788Z,2.37
2023-04-25T20:55:12.246Z,2.30
2023-04-25T20:57:40.987Z,2.07
2023-04-25T21:00:18.711Z,2.20
2023-04-25T21:02:48.221Z,2.10
2023-04-25T21:05:17.044Z,2.17
2023-04-25T21:07:46.890Z,3.00
2023-04-25T21:10:18.237Z,5.10
2023-04-25T21:12:49.572Z,2.87
2023-04-25T21:15:20.532Z,7.53
2023-04-25T21:17:50.024Z,2.40
2023-04-25T21:20:20.816Z,2.10
2023-04-25T21:22:54.261Z,1.80
2023-04-25T21:25:31.104Z,1.97
2023-04-25T21:28:02.303Z,1.70
2023-04-25T21:30:31.610Z,1.80
2023-04-25T21:33:00.666Z,2.10
2023-04-25T21:35:29.332Z,2.10
2023-04-25T21:37:57.987Z,1.53
2023-04-25T21:40:28.708Z,1.90
2023-04-25T21:42:57.417Z,1.70
2023-04-25T21:45:26.278Z,1.83
2023-04-25T21:47:55.165Z,1.80
2023-04-25T21:50:23.893Z,1.90
2023-04-25T21:52:54.185Z,1.80
2023-04-25T21:55:23.153Z,1.73
2023-04-25T21:57:53.447Z,1.87
2023-04-25T22:00:24.985Z,1.80
2023-04-25T22:02:55.438Z,2.10
2023-04-25T22:05:26.678Z,2.00
2023-04-25T22:07:57.652Z,1.57
2023-04-25T22:10:26.744Z,1.53
2023-04-25T22:12:56.992Z,1.70
2023-04-25T22:15:25.794Z,1.33
2023-04-25T22:17:55.636Z,1.40
2023-04-25T22:20:26.487Z,1.90
2023-04-25T22:22:56.580Z,1.93
2023-04-25T22:25:25.690Z,1.60
2023-04-25T22:27:55.461Z,2.20
2023-04-25T22:30:25.833Z,2.27
2023-04-25T22:32:54.532Z,1.87
2023-04-25T22:35:23.400Z,2.07
2023-04-25T22:37:52.094Z,1.90
2023-04-25T22:40:20.950Z,1.87
2023-04-25T22:42:49.695Z,2.10
2023-04-25T22:45:18.813Z,2.30
2023-04-25T22:47:48.878Z,2.23
2023-04-25T22:50:18.124Z,2.40
2023-04-25T22:52:48.508Z,2.67
2023-04-25T22:55:17.250Z,2.60
2023-04-25T22:57:45.987Z,2.50
2023-04-25T23:00:22.295Z,2.50
2023-04-25T23:02:52.657Z,2.47
2023-04-25T23:05:21.540Z,2.40
2023-04-25T23:07:50.256Z,2.30
2023-04-25T23:10:19.457Z,2.50
2023-04-25T23:12:48.704Z,2.30
2023-04-25T23:15:20.904Z,2.30
2023-04-25T23:17:51.140Z,2.20
2023-04-25T23:20:21.117Z,2.10
2023-04-25T23:22:49.838Z,2.10
2023-04-25T23:25:19.127Z,2.20
2023-04-25T23:27:47.745Z,2.40
2023-04-25T23:30:17.171Z,2.20
2023-04-25T23:32:46.030Z,2.20
2023-04-25T23:35:16.198Z,2.53
2023-04-25T23:37:44.905Z,2.40
2023-04-25T23:40:14.009Z,2.10
2023-04-25T23:42:43.341Z,2.10
2023-04-25T23:45:12.585Z,2.10
2023-04-25T23:47:41.288Z,2.23
2023-04-25T23:50:11.283Z,2.57
2023-04-25T23:52:41.447Z,2.10
2023-04-25T23:55:10.902Z,2.30
2023-04-25T23:57:39.565Z,2.10
